sensor_id;sensor_type;location;lat;lon;timestamp;pressure;altitude;pressure_sealevel;temperature;humidity
74125;BME280;62475;52.192;5.396;2022-12-29T00:01:35;99874.69;;;11.01;100.00
74125;BME280;62475;52.192;5.396;2022-12-29T00:04:02;99867.69;;;10.95;100.00
74125;BME280;62475;52.192;5.396;2022-12-29T00:06:27;99863.03;;;11.04;100.00
74125;BME280;62475;52.192;5.396;2022-12-29T00:08:53;99853.34;;;11.06;100.00
74125;BME280;62475;52.192;5.396;2022-12-29T00:11:19;99854.63;;;11.09;100.00
74125;BME280;62475;52.192;5.396;2022-12-29T00:13:45;99844.13;;;11.11;100.00
74125;BME280;62475;52.192;5.396;2022-12-29T00:16:29;99848.19;;;11.13;100.00
74125;BME280;62475;52.192;5.396;2022-12-29T00:18:55;99847.22;;;11.18;100.00
74125;BME280;62475;52.192;5.396;2022-12-29T00:21:20;99836.22;;;11.18;100.00
74125;BME280;62475;52.192;5.396;2022-12-29T00:24:05;99823.47;;;11.22;100.00
74125;BME280;62475;52.192;5.396;2022-12-29T00:27:32;99829.13;;;11.17;100.00
74125;BME280;62475;52.192;5.396;2022-12-29T00:29:57;99815.69;;;11.24;100.00
74125;BME280;62475;52.192;5.396;2022-12-29T00:32:40;99814.06;;;11.23;100.00
74125;BME280;62475;52.192;5.396;2022-12-29T00:35:37;99809.38;;;11.23;100.00
74125;BME280;62475;52.192;5.396;2022-12-29T00:38:03;99812.47;;;11.39;100.00
74125;BME280;62475;52.192;5.396;2022-12-29T00:40:48;99809.06;;;11.42;100.00
74125;BME280;62475;52.192;5.396;2022-12-29T00:43:32;99808.56;;;11.31;100.00
74125;BME280;62475;52.192;5.396;2022-12-29T00:46:15;99804.03;;;11.44;100.00
74125;BME280;62475;52.192;5.396;2022-12-29T00:48:41;99799.50;;;11.48;100.00
74125;BME280;62475;52.192;5.396;2022-12-29T00:51:24;99791.59;;;11.47;100.00
74125;BME280;62475;52.192;5.396;2022-12-29T00:53:50;99775.88;;;11.47;100.00
74125;BME280;62475;52.192;5.396;2022-12-29T00:56:15;99782.22;;;11.39;100.00
74125;BME280;62475;52.192;5.396;2022-12-29T00:58:43;99770.38;;;11.47;100.00
74125;BME280;62475;52.192;5.396;2022-12-29T01:01:08;99763.59;;;11.44;100.00
74125;BME280;62475;52.192;5.396;2022-12-29T01:03:35;99763.75;;;11.48;100.00
74125;BME280;62475;52.192;5.396;2022-12-29T01:06:01;99768.94;;;11.41;100.00
74125;BME280;62475;52.192;5.396;2022-12-29T01:08:30;99756.81;;;11.42;100.00
74125;BME280;62475;52.192;5.396;2022-12-29T01:11:03;99748.06;;;11.40;100.00
74125;BME280;62475;52.192;5.396;2022-12-29T01:13:28;99752.94;;;11.43;100.00
74125;BME280;62475;52.192;5.396;2022-12-29T01:15:53;99770.41;;;11.30;100.00
74125;BME280;62475;52.192;5.396;2022-12-29T01:18:19;99748.56;;;11.33;100.00
74125;BME280;62475;52.192;5.396;2022-12-29T01:20:44;99745.34;;;11.23;100.00
74125;BME280;62475;52.192;5.396;2022-12-29T01:23:10;99742.94;;;11.21;100.00
74125;BME280;62475;52.192;5.396;2022-12-29T01:25:35;99744.53;;;11.05;100.00
74125;BME280;62475;52.192;5.396;2022-12-29T01:28:00;99757.28;;;10.67;100.00
74125;BME280;62475;52.192;5.396;2022-12-29T01:30:25;99756.28;;;10.46;100.00
74125;BME280;62475;52.192;5.396;2022-12-29T01:32:50;99740.59;;;10.38;100.00
74125;BME280;62475;52.192;5.396;2022-12-29T01:35:16;99748.66;;;10.35;100.00
74125;BME280;62475;52.192;5.396;2022-12-29T01:37:41;99751.72;;;10.24;100.00
74125;BME280;62475;52.192;5.396;2022-12-29T01:40:06;99741.84;;;10.23;100.00
74125;BME280;62475;52.192;5.396;2022-12-29T01:42:31;99765.25;;;10.21;100.00
74125;BME280;62475;52.192;5.396;2022-12-29T01:44:58;99752.38;;;10.30;100.00
74125;BME280;62475;52.192;5.396;2022-12-29T01:47:26;99760.47;;;10.35;100.00
74125;BME280;62475;52.192;5.396;2022-12-29T01:49:53;99755.56;;;10.23;100.00
74125;BME280;62475;52.192;5.396;2022-12-29T01:52:19;99755.72;;;10.18;100.00
74125;BME280;62475;52.192;5.396;2022-12-29T01:54:47;99760.59;;;10.21;100.00
74125;BME280;62475;52.192;5.396;2022-12-29T01:57:16;99764.97;;;10.31;100.00
74125;BME280;62475;52.192;5.396;2022-12-29T01:59:43;99750.56;;;10.25;100.00
74125;BME280;62475;52.192;5.396;2022-12-29T02:02:11;99755.88;;;10.22;100.00
74125;BME280;62475;52.192;5.396;2022-12-29T02:04:36;99748.00;;;10.38;100.00
74125;BME280;62475;52.192;5.396;2022-12-29T02:07:07;99751.59;;;10.47;100.00
74125;BME280;62475;52.192;5.396;2022-12-29T02:09:33;99756.44;;;10.50;100.00
74125;BME280;62475;52.192;5.396;2022-12-29T02:12:00;99757.09;;;10.55;100.00
74125;BME280;62475;52.192;5.396;2022-12-29T02:14:25;99755.66;;;10.49;100.00
74125;BME280;62475;52.192;5.396;2022-12-29T02:17:14;99764.22;;;10.48;100.00
74125;BME280;62475;52.192;5.396;2022-12-29T02:25:20;99767.09;;;10.51;100.00
74125;BME280;62475;52.192;5.396;2022-12-29T02:27:59;99771.31;;;10.49;100.00
74125;BME280;62475;52.192;5.396;2022-12-29T02:35:55;99754.84;;;10.57;100.00
74125;BME280;62475;52.192;5.396;2022-12-29T02:41:10;99756.75;;;10.48;100.00
74125;BME280;62475;52.192;5.396;2022-12-29T02:43:56;99742.09;;;10.61;100.00
74125;BME280;62475;52.192;5.396;2022-12-29T02:46:28;99739.84;;;10.63;100.00
74125;BME280;62475;52.192;5.396;2022-12-29T02:49:06;99738.88;;;10.76;100.00
74125;BME280;62475;52.192;5.396;2022-12-29T02:52:17;99735.81;;;10.69;100.00
74125;BME280;62475;52.192;5.396;2022-12-29T02:54:23;99735.31;;;10.67;100.00
74125;BME280;62475;52.192;5.396;2022-12-29T02:59:51;99737.56;;;10.57;100.00
74125;BME280;62475;52.192;5.396;2022-12-29T03:02:27;99749.19;;;10.62;100.00
74125;BME280;62475;52.192;5.396;2022-12-29T03:09:51;99768.78;;;10.78;100.00
74125;BME280;62475;52.192;5.396;2022-12-29T03:12:26;99738.56;;;10.86;100.00
74125;BME280;62475;52.192;5.396;2022-12-29T03:15:13;99751.16;;;10.70;100.00
74125;BME280;62475;52.192;5.396;2022-12-29T03:18:05;99740.19;;;10.70;100.00
74125;BME280;62475;52.192;5.396;2022-12-29T03:23:11;99754.38;;;10.72;100.00
74125;BME280;62475;52.192;5.396;2022-12-29T03:25:39;99739.53;;;10.73;100.00
74125;BME280;62475;52.192;5.396;2022-12-29T03:28:11;99748.88;;;10.64;100.00
74125;BME280;62475;52.192;5.396;2022-12-29T03:30:37;99745.34;;;10.63;100.00
74125;BME280;62475;52.192;5.396;2022-12-29T03:33:04;99738.06;;;10.67;100.00
74125;BME280;62475;52.192;5.396;2022-12-29T03:35:33;99739.63;;;10.51;100.00
74125;BME280;62475;52.192;5.396;2022-12-29T03:38:04;99741.25;;;10.44;100.00
74125;BME280;62475;52.192;5.396;2022-12-29T03:40:30;99733.34;;;10.42;100.00
74125;BME280;62475;52.192;5.396;2022-12-29T03:42:56;99731.38;;;10.34;100.00
74125;BME280;62475;52.192;5.396;2022-12-29T03:45:22;99747.81;;;10.25;100.00
74125;BME280;62475;52.192;5.396;2022-12-29T03:47:47;99748.94;;;10.16;100.00
74125;BME280;62475;52.192;5.396;2022-12-29T03:50:12;99736.41;;;10.41;100.00
74125;BME280;62475;52.192;5.396;2022-12-29T03:52:38;99738.97;;;10.28;100.00
74125;BME280;62475;52.192;5.396;2022-12-29T03:55:03;99741.09;;;10.40;100.00
74125;BME280;62475;52.192;5.396;2022-12-29T03:57:29;99734.28;;;10.38;100.00
74125;BME280;62475;52.192;5.396;2022-12-29T03:59:54;99743.66;;;10.28;100.00
74125;BME280;62475;52.192;5.396;2022-12-29T04:02:20;99723.63;;;10.27;100.00
74125;BME280;62475;52.192;5.396;2022-12-29T04:04:45;99734.44;;;10.32;100.00
74125;BME280;62475;52.192;5.396;2022-12-29T04:07:10;99728.13;;;10.32;100.00
74125;BME280;62475;52.192;5.396;2022-12-29T04:09:35;99729.09;;;10.27;100.00
74125;BME280;62475;52.192;5.396;2022-12-29T04:12:01;99732.16;;;10.17;100.00
74125;BME280;62475;52.192;5.396;2022-12-29T04:14:26;99746.03;;;10.12;100.00
74125;BME280;62475;52.192;5.396;2022-12-29T04:16:51;99745.06;;;10.25;100.00
74125;BME280;62475;52.192;5.396;2022-12-29T04:19:16;99759.75;;;10.21;100.00
74125;BME280;62475;52.192;5.396;2022-12-29T04:21:42;99760.75;;;10.25;100.00
74125;BME280;62475;52.192;5.396;2022-12-29T04:24:07;99767.03;;;10.25;100.00
74125;BME280;62475;52.192;5.396;2022-12-29T04:26:32;99759.47;;;10.31;100.00
74125;BME280;62475;52.192;5.396;2022-12-29T04:28:58;99763.69;;;10.28;100.00
74125;BME280;62475;52.192;5.396;2022-12-29T04:31:23;99757.19;;;10.24;100.00
74125;BME280;62475;52.192;5.396;2022-12-29T04:33:48;99776.94;;;10.44;100.00
74125;BME280;62475;52.192;5.396;2022-12-29T04:36:13;99764.84;;;10.45;100.00
74125;BME280;62475;52.192;5.396;2022-12-29T04:38:39;99769.97;;;10.38;100.00
74125;BME280;62475;52.192;5.396;2022-12-29T04:41:04;99776.09;;;10.35;100.00
74125;BME280;62475;52.192;5.396;2022-12-29T04:43:29;99775.63;;;10.41;100.00
74125;BME280;62475;52.192;5.396;2022-12-29T04:45:55;99780.97;;;10.38;100.00
74125;BME280;62475;52.192;5.396;2022-12-29T04:48:20;99786.00;;;10.44;99.47
74125;BME280;62475;52.192;5.396;2022-12-29T04:50:47;99773.22;;;10.40;100.00
74125;BME280;62475;52.192;5.396;2022-12-29T04:53:12;99767.09;;;10.43;97.86
74125;BME280;62475;52.192;5.396;2022-12-29T04:55:37;99797.44;;;10.38;99.53
74125;BME280;62475;52.192;5.396;2022-12-29T04:58:03;99780.09;;;10.20;100.00
74125;BME280;62475;52.192;5.396;2022-12-29T05:00:28;99792.16;;;10.10;100.00
74125;BME280;62475;52.192;5.396;2022-12-29T05:02:53;99793.38;;;10.04;100.00
74125;BME280;62475;52.192;5.396;2022-12-29T05:05:19;99794.31;;;9.91;100.00
74125;BME280;62475;52.192;5.396;2022-12-29T05:07:44;99791.34;;;9.79;100.00
74125;BME280;62475;52.192;5.396;2022-12-29T05:10:09;99800.31;;;9.71;100.00
74125;BME280;62475;52.192;5.396;2022-12-29T05:12:35;99800.84;;;9.82;100.00
74125;BME280;62475;52.192;5.396;2022-12-29T05:15:01;99802.75;;;10.03;100.00
74125;BME280;62475;52.192;5.396;2022-12-29T05:17:28;99814.94;;;9.89;100.00
74125;BME280;62475;52.192;5.396;2022-12-29T05:19:53;99808.00;;;10.13;100.00
74125;BME280;62475;52.192;5.396;2022-12-29T05:22:18;99802.13;;;10.06;100.00
74125;BME280;62475;52.192;5.396;2022-12-29T05:24:43;99803.16;;;10.10;100.00
74125;BME280;62475;52.192;5.396;2022-12-29T05:27:09;99808.16;;;10.17;99.34
74125;BME280;62475;52.192;5.396;2022-12-29T05:29:34;99809.81;;;10.18;99.95
74125;BME280;62475;52.192;5.396;2022-12-29T05:31:59;99812.91;;;10.03;100.00
74125;BME280;62475;52.192;5.396;2022-12-29T05:34:24;99814.97;;;9.97;100.00
74125;BME280;62475;52.192;5.396;2022-12-29T05:36:50;99831.72;;;9.87;100.00
74125;BME280;62475;52.192;5.396;2022-12-29T05:39:15;99812.81;;;9.86;100.00
74125;BME280;62475;52.192;5.396;2022-12-29T05:41:40;99812.22;;;9.67;100.00
74125;BME280;62475;52.192;5.396;2022-12-29T05:44:05;99817.66;;;9.58;100.00
74125;BME280;62475;52.192;5.396;2022-12-29T05:46:31;99826.91;;;9.49;100.00
74125;BME280;62475;52.192;5.396;2022-12-29T05:48:56;99829.47;;;9.45;100.00
74125;BME280;62475;52.192;5.396;2022-12-29T05:51:21;99812.44;;;9.48;100.00
74125;BME280;62475;52.192;5.396;2022-12-29T05:53:46;99815.03;;;9.53;100.00
74125;BME280;62475;52.192;5.396;2022-12-29T05:56:12;99813.59;;;9.56;100.00
74125;BME280;62475;52.192;5.396;2022-12-29T05:58:37;99834.03;;;9.50;100.00
74125;BME280;62475;52.192;5.396;2022-12-29T06:01:02;99827.38;;;9.42;100.00
74125;BME280;62475;52.192;5.396;2022-12-29T06:03:27;99839.28;;;9.38;100.00
74125;BME280;62475;52.192;5.396;2022-12-29T06:05:52;99836.03;;;9.36;100.00
74125;BME280;62475;52.192;5.396;2022-12-29T06:08:18;99840.88;;;9.39;100.00
74125;BME280;62475;52.192;5.396;2022-12-29T06:10:43;99840.09;;;9.38;100.00
74125;BME280;62475;52.192;5.396;2022-12-29T06:13:08;99845.25;;;9.40;100.00
74125;BME280;62475;52.192;5.396;2022-12-29T06:15:34;99842.91;;;9.47;100.00
74125;BME280;62475;52.192;5.396;2022-12-29T06:17:59;99829.81;;;9.66;100.00
74125;BME280;62475;52.192;5.396;2022-12-29T06:20:24;99840.41;;;9.59;100.00
74125;BME280;62475;52.192;5.396;2022-12-29T06:22:50;99851.19;;;9.55;100.00
74125;BME280;62475;52.192;5.396;2022-12-29T06:25:15;99852.47;;;9.58;100.00
74125;BME280;62475;52.192;5.396;2022-12-29T06:27:41;99840.53;;;9.54;100.00
74125;BME280;62475;52.192;5.396;2022-12-29T06:30:06;99841.50;;;9.58;100.00
74125;BME280;62475;52.192;5.396;2022-12-29T06:32:31;99851.59;;;9.49;100.00
74125;BME280;62475;52.192;5.396;2022-12-29T06:34:57;99859.69;;;9.32;100.00
74125;BME280;62475;52.192;5.396;2022-12-29T06:37:22;99868.88;;;9.13;100.00
74125;BME280;62475;52.192;5.396;2022-12-29T06:39:47;99866.84;;;9.19;100.00
74125;BME280;62475;52.192;5.396;2022-12-29T06:42:12;99865.19;;;9.18;100.00
74125;BME280;62475;52.192;5.396;2022-12-29T06:44:37;99856.97;;;9.18;100.00
74125;BME280;62475;52.192;5.396;2022-12-29T06:47:03;99857.72;;;9.10;100.00
74125;BME280;62475;52.192;5.396;2022-12-29T06:49:28;99862.22;;;9.28;100.00
74125;BME280;62475;52.192;5.396;2022-12-29T06:51:53;99863.78;;;9.21;100.00
74125;BME280;62475;52.192;5.396;2022-12-29T06:54:18;99864.06;;;9.33;100.00
74125;BME280;62475;52.192;5.396;2022-12-29T06:56:44;99855.75;;;9.24;100.00
74125;BME280;62475;52.192;5.396;2022-12-29T06:59:09;99854.13;;;9.23;100.00
74125;BME280;62475;52.192;5.396;2022-12-29T07:01:34;99861.38;;;9.19;100.00
74125;BME280;62475;52.192;5.396;2022-12-29T07:04:00;99851.06;;;9.38;100.00
74125;BME280;62475;52.192;5.396;2022-12-29T07:06:26;99858.06;;;9.31;100.00
74125;BME280;62475;52.192;5.396;2022-12-29T07:08:51;99870.72;;;9.40;100.00
74125;BME280;62475;52.192;5.396;2022-12-29T07:11:20;99784.94;;;9.17;98.27
74125;BME280;62475;52.192;5.396;2022-12-29T07:13:45;99866.75;;;9.46;100.00
74125;BME280;62475;52.192;5.396;2022-12-29T07:16:10;99866.06;;;9.41;99.23
74125;BME280;62475;52.192;5.396;2022-12-29T07:18:36;99875.22;;;9.36;100.00
74125;BME280;62475;52.192;5.396;2022-12-29T07:21:01;99884.78;;;9.25;100.00
74125;BME280;62475;52.192;5.396;2022-12-29T07:23:27;99884.56;;;9.22;99.32
74125;BME280;62475;52.192;5.396;2022-12-29T07:25:59;99879.66;;;9.10;100.00
74125;BME280;62475;52.192;5.396;2022-12-29T07:28:24;99882.38;;;9.10;100.00
74125;BME280;62475;52.192;5.396;2022-12-29T07:30:49;99880.34;;;9.02;100.00
74125;BME280;62475;52.192;5.396;2022-12-29T07:33:15;99894.66;;;8.99;100.00
74125;BME280;62475;52.192;5.396;2022-12-29T07:35:40;99901.66;;;8.91;100.00
74125;BME280;62475;52.192;5.396;2022-12-29T07:38:05;99899.44;;;8.93;100.00
74125;BME280;62475;52.192;5.396;2022-12-29T07:40:30;99900.75;;;9.09;100.00
74125;BME280;62475;52.192;5.396;2022-12-29T07:42:55;99885.31;;;9.13;100.00
74125;BME280;62475;52.192;5.396;2022-12-29T07:45:21;99889.75;;;9.23;100.00
74125;BME280;62475;52.192;5.396;2022-12-29T07:47:49;99893.94;;;9.21;100.00
74125;BME280;62475;52.192;5.396;2022-12-29T07:50:15;99893.09;;;9.20;100.00
74125;BME280;62475;52.192;5.396;2022-12-29T07:52:40;99897.66;;;9.25;100.00
74125;BME280;62475;52.192;5.396;2022-12-29T07:55:05;99888.34;;;9.26;100.00
74125;BME280;62475;52.192;5.396;2022-12-29T07:57:31;99883.16;;;9.24;100.00
74125;BME280;62475;52.192;5.396;2022-12-29T07:59:56;99901.22;;;9.25;100.00
74125;BME280;62475;52.192;5.396;2022-12-29T08:02:24;99902.47;;;9.19;100.00
74125;BME280;62475;52.192;5.396;2022-12-29T08:04:51;99891.06;;;9.26;100.00
74125;BME280;62475;52.192;5.396;2022-12-29T08:07:16;99886.09;;;9.28;100.00
74125;BME280;62475;52.192;5.396;2022-12-29T08:09:41;99880.72;;;9.23;100.00
74125;BME280;62475;52.192;5.396;2022-12-29T08:12:07;99875.09;;;9.41;99.26
74125;BME280;62475;52.192;5.396;2022-12-29T08:14:33;99872.97;;;9.38;99.41
74125;BME280;62475;52.192;5.396;2022-12-29T08:16:58;99868.53;;;9.51;98.12
74125;BME280;62475;52.192;5.396;2022-12-29T08:19:23;99869.69;;;9.50;97.61
74125;BME280;62475;52.192;5.396;2022-12-29T08:21:49;99863.06;;;9.51;97.43
74125;BME280;62475;52.192;5.396;2022-12-29T08:24:14;99859.22;;;9.52;96.80
74125;BME280;62475;52.192;5.396;2022-12-29T08:26:39;99867.50;;;9.60;96.32
74125;BME280;62475;52.192;5.396;2022-12-29T08:29:04;99866.63;;;9.73;94.74
74125;BME280;62475;52.192;5.396;2022-12-29T08:31:30;99865.50;;;9.74;94.37
74125;BME280;62475;52.192;5.396;2022-12-29T08:33:55;99869.03;;;9.75;93.99
74125;BME280;62475;52.192;5.396;2022-12-29T08:36:20;99870.56;;;9.81;93.52
74125;BME280;62475;52.192;5.396;2022-12-29T08:38:46;99873.75;;;9.74;94.10
74125;BME280;62475;52.192;5.396;2022-12-29T08:41:11;99875.09;;;9.85;92.57
74125;BME280;62475;52.192;5.396;2022-12-29T08:43:36;99875.34;;;9.75;93.35
74125;BME280;62475;52.192;5.396;2022-12-29T08:46:01;99890.88;;;9.80;92.59
74125;BME280;62475;52.192;5.396;2022-12-29T08:48:27;99886.69;;;9.82;92.56
74125;BME280;62475;52.192;5.396;2022-12-29T08:50:52;99898.41;;;9.74;94.08
74125;BME280;62475;52.192;5.396;2022-12-29T08:53:17;99885.75;;;9.65;95.19
74125;BME280;62475;52.192;5.396;2022-12-29T08:55:46;99896.91;;;9.46;97.98
74125;BME280;62475;52.192;5.396;2022-12-29T08:58:11;99911.63;;;9.50;97.33
74125;BME280;62475;52.192;5.396;2022-12-29T09:00:39;99901.75;;;9.49;97.26
74125;BME280;62475;52.192;5.396;2022-12-29T09:03:05;99901.50;;;9.59;96.54
74125;BME280;62475;52.192;5.396;2022-12-29T09:05:30;99912.09;;;9.52;97.21
74125;BME280;62475;52.192;5.396;2022-12-29T09:07:55;99902.44;;;9.55;97.21
74125;BME280;62475;52.192;5.396;2022-12-29T09:10:20;99901.44;;;9.51;98.30
74125;BME280;62475;52.192;5.396;2022-12-29T09:12:46;99901.31;;;9.56;97.27
74125;BME280;62475;52.192;5.396;2022-12-29T09:15:11;99903.59;;;9.54;98.39
74125;BME280;62475;52.192;5.396;2022-12-29T09:17:37;99911.50;;;9.55;98.42
74125;BME280;62475;52.192;5.396;2022-12-29T09:20:06;99906.59;;;9.66;96.57
74125;BME280;62475;52.192;5.396;2022-12-29T09:22:31;99918.84;;;9.68;97.17
74125;BME280;62475;52.192;5.396;2022-12-29T09:24:56;99920.09;;;9.62;98.64
74125;BME280;62475;52.192;5.396;2022-12-29T09:27:22;99919.97;;;9.32;100.00
74125;BME280;62475;52.192;5.396;2022-12-29T09:29:47;99931.97;;;9.22;100.00
74125;BME280;62475;52.192;5.396;2022-12-29T09:32:12;99947.28;;;9.23;100.00
74125;BME280;62475;52.192;5.396;2022-12-29T09:34:37;99937.34;;;9.27;100.00
74125;BME280;62475;52.192;5.396;2022-12-29T09:37:03;99964.66;;;9.18;100.00
74125;BME280;62475;52.192;5.396;2022-12-29T09:39:28;99957.34;;;9.14;100.00
74125;BME280;62475;52.192;5.396;2022-12-29T09:47:02;99989.13;;;9.15;100.00
74125;BME280;62475;52.192;5.396;2022-12-29T09:49:42;99989.81;;;9.07;100.00
74125;BME280;62475;52.192;5.396;2022-12-29T09:52:21;99986.56;;;8.91;100.00
74125;BME280;62475;52.192;5.396;2022-12-29T09:57:26;99998.63;;;8.77;100.00
74125;BME280;62475;52.192;5.396;2022-12-29T10:00:01;100013.22;;;8.72;100.00
74125;BME280;62475;52.192;5.396;2022-12-29T10:04:54;100008.44;;;8.64;100.00
74125;BME280;62475;52.192;5.396;2022-12-29T10:20:44;100033.31;;;8.81;100.00
74125;BME280;62475;52.192;5.396;2022-12-29T10:25:48;100044.06;;;8.91;100.00
74125;BME280;62475;52.192;5.396;2022-12-29T10:30:41;100035.78;;;8.96;100.00
74125;BME280;62475;52.192;5.396;2022-12-29T10:33:10;100052.91;;;9.02;100.00
74125;BME280;62475;52.192;5.396;2022-12-29T10:35:37;100044.13;;;9.05;100.00
74125;BME280;62475;52.192;5.396;2022-12-29T10:40:59;100065.53;;;9.16;100.00
74125;BME280;62475;52.192;5.396;2022-12-29T10:43:29;100071.09;;;9.11;100.00
74125;BME280;62475;52.192;5.396;2022-12-29T10:45:58;100076.59;;;9.11;100.00
74125;BME280;62475;52.192;5.396;2022-12-29T10:48:25;100089.03;;;9.04;100.00
74125;BME280;62475;52.192;5.396;2022-12-29T10:50:52;100081.00;;;8.94;100.00
74125;BME280;62475;52.192;5.396;2022-12-29T10:53:21;100082.63;;;8.95;100.00
74125;BME280;62475;52.192;5.396;2022-12-29T10:55:48;100096.03;;;8.96;100.00
74125;BME280;62475;52.192;5.396;2022-12-29T10:58:14;100091.47;;;8.92;100.00
74125;BME280;62475;52.192;5.396;2022-12-29T11:00:39;100097.66;;;8.97;100.00
74125;BME280;62475;52.192;5.396;2022-12-29T11:08:10;99937.09;;;7.96;100.00
74125;BME280;62475;52.192;5.396;2022-12-29T11:10:37;100116.97;;;9.33;100.00
74125;BME280;62475;52.192;5.396;2022-12-29T11:13:04;100115.38;;;9.32;100.00
74125;BME280;62475;52.192;5.396;2022-12-29T11:15:39;100126.13;;;9.29;100.00
74125;BME280;62475;52.192;5.396;2022-12-29T11:18:04;100120.44;;;9.25;100.00
74125;BME280;62475;52.192;5.396;2022-12-29T11:20:31;100135.84;;;9.21;100.00
74125;BME280;62475;52.192;5.396;2022-12-29T11:22:57;100136.44;;;9.18;100.00
74125;BME280;62475;52.192;5.396;2022-12-29T11:25:22;100133.63;;;9.23;100.00
74125;BME280;62475;52.192;5.396;2022-12-29T11:27:57;100143.56;;;9.19;100.00
74125;BME280;62475;52.192;5.396;2022-12-29T11:30:25;100152.78;;;9.23;100.00
74125;BME280;62475;52.192;5.396;2022-12-29T11:32:53;100153.53;;;9.29;100.00
74125;BME280;62475;52.192;5.396;2022-12-29T11:37:57;100166.97;;;9.57;100.00
74125;BME280;62475;52.192;5.396;2022-12-29T11:40:23;100155.59;;;9.64;100.00
74125;BME280;62475;52.192;5.396;2022-12-29T11:45:15;100165.31;;;9.70;100.00
74125;BME280;62475;52.192;5.396;2022-12-29T11:47:42;100167.75;;;9.71;100.00
74125;BME280;62475;52.192;5.396;2022-12-29T11:50:15;100170.03;;;9.69;100.00
74125;BME280;62475;52.192;5.396;2022-12-29T11:52:45;100172.44;;;9.98;100.00
74125;BME280;62475;52.192;5.396;2022-12-29T11:55:18;100190.72;;;10.29;100.00
74125;BME280;62475;52.192;5.396;2022-12-29T11:57:45;100182.38;;;10.35;100.00
74125;BME280;62475;52.192;5.396;2022-12-29T12:00:14;100175.88;;;10.30;100.00
74125;BME280;62475;52.192;5.396;2022-12-29T12:02:41;100183.28;;;10.44;100.00
74125;BME280;62475;52.192;5.396;2022-12-29T12:05:20;100176.13;;;10.43;100.00
74125;BME280;62475;52.192;5.396;2022-12-29T12:10:32;100188.69;;;10.08;100.00
74125;BME280;62475;52.192;5.396;2022-12-29T12:15:39;100196.31;;;9.84;100.00
74125;BME280;62475;52.192;5.396;2022-12-29T12:18:11;100192.84;;;9.78;100.00
74125;BME280;62475;52.192;5.396;2022-12-29T12:23:12;100206.16;;;9.71;100.00
74125;BME280;62475;52.192;5.396;2022-12-29T12:25:39;100206.16;;;9.71;100.00
74125;BME280;62475;52.192;5.396;2022-12-29T12:28:12;100208.31;;;9.74;100.00
74125;BME280;62475;52.192;5.396;2022-12-29T12:30:42;100209.19;;;9.70;100.00
74125;BME280;62475;52.192;5.396;2022-12-29T12:41:00;100219.56;;;9.59;100.00
74125;BME280;62475;52.192;5.396;2022-12-29T12:48:41;100224.25;;;9.59;100.00
74125;BME280;62475;52.192;5.396;2022-12-29T12:53:52;100220.69;;;9.58;100.00
74125;BME280;62475;52.192;5.396;2022-12-29T12:59:06;100226.78;;;9.69;100.00
74125;BME280;62475;52.192;5.396;2022-12-29T13:04:26;100225.56;;;9.75;100.00
74125;BME280;62475;52.192;5.396;2022-12-29T13:17:08;100242.44;;;9.82;100.00
74125;BME280;62475;52.192;5.396;2022-12-29T13:19:50;100251.47;;;9.82;100.00
74125;BME280;62475;52.192;5.396;2022-12-29T13:30:18;100262.03;;;9.89;100.00
74125;BME280;62475;52.192;5.396;2022-12-29T13:35:19;100256.97;;;9.82;100.00
74125;BME280;62475;52.192;5.396;2022-12-29T13:37:53;100257.78;;;9.83;100.00
74125;BME280;62475;52.192;5.396;2022-12-29T13:40:21;100265.41;;;9.86;100.00
74125;BME280;62475;52.192;5.396;2022-12-29T13:42:47;100266.84;;;9.83;100.00
74125;BME280;62475;52.192;5.396;2022-12-29T13:45:14;100261.53;;;9.87;100.00
74125;BME280;62475;52.192;5.396;2022-12-29T13:47:49;100258.19;;;9.90;100.00
74125;BME280;62475;52.192;5.396;2022-12-29T13:50:18;100261.25;;;9.88;99.97
74125;BME280;62475;52.192;5.396;2022-12-29T13:52:47;100260.44;;;9.88;100.00
74125;BME280;62475;52.192;5.396;2022-12-29T13:55:23;100252.31;;;9.83;100.00
74125;BME280;62475;52.192;5.396;2022-12-29T13:57:53;100260.63;;;9.78;100.00
74125;BME280;62475;52.192;5.396;2022-12-29T14:00:23;100262.03;;;9.75;100.00
74125;BME280;62475;52.192;5.396;2022-12-29T14:07:46;100256.84;;;9.74;100.00
74125;BME280;62475;52.192;5.396;2022-12-29T14:12:59;100267.94;;;9.69;100.00
74125;BME280;62475;52.192;5.396;2022-12-29T14:15:25;100288.84;;;9.33;100.00
74125;BME280;62475;52.192;5.396;2022-12-29T14:18:02;100292.59;;;8.86;100.00
74125;BME280;62475;52.192;5.396;2022-12-29T14:20:29;100302.19;;;8.65;100.00
74125;BME280;62475;52.192;5.396;2022-12-29T14:23:16;100299.59;;;8.55;100.00
74125;BME280;62475;52.192;5.396;2022-12-29T14:28:27;100292.09;;;8.42;100.00
74125;BME280;62475;52.192;5.396;2022-12-29T14:30:54;100293.13;;;8.46;100.00
74125;BME280;62475;52.192;5.396;2022-12-29T14:33:20;100291.94;;;8.52;100.00
74125;BME280;62475;52.192;5.396;2022-12-29T14:35:47;100307.59;;;8.51;100.00
74125;BME280;62475;52.192;5.396;2022-12-29T14:38:15;100303.25;;;8.45;100.00
74125;BME280;62475;52.192;5.396;2022-12-29T14:40:42;100313.97;;;8.42;100.00
74125;BME280;62475;52.192;5.396;2022-12-29T14:43:24;100322.56;;;8.35;100.00
74125;BME280;62475;52.192;5.396;2022-12-29T14:45:57;100323.69;;;8.29;100.00
74125;BME280;62475;52.192;5.396;2022-12-29T14:50:49;100303.78;;;8.24;100.00
74125;BME280;62475;52.192;5.396;2022-12-29T14:55:58;100326.25;;;8.21;100.00
74125;BME280;62475;52.192;5.396;2022-12-29T14:58:31;100318.63;;;8.18;100.00
74125;BME280;62475;52.192;5.396;2022-12-29T15:00:57;100316.19;;;8.16;100.00
74125;BME280;62475;52.192;5.396;2022-12-29T15:03:24;100311.06;;;8.10;100.00
74125;BME280;62475;52.192;5.396;2022-12-29T15:08:19;100310.47;;;8.13;100.00
74125;BME280;62475;52.192;5.396;2022-12-29T15:10:57;100316.75;;;8.13;100.00
74125;BME280;62475;52.192;5.396;2022-12-29T15:13:32;100320.81;;;8.16;100.00